Time;durP1;ratioP1;P1;durP2;ratioP2;P2;SDS_P1;SDS_P2;PMS_P1;PMS_P2;Temp;Humidity;BMP_temperature;BMP_pressure;BME280_temperature;BME280_humidity;BME280_pressure;Samples;Min_cycle;Max_cycle;Signal;HPM_P1;HPM_P2
2023/07/24 00:00:35;;;;;;;3.55;2.60;;;;;;;;;;5009587;28;25114;-67
2023/07/24 00:03:01;;;;;;;4.85;2.90;;;;;;;;;;5008262;28;25074;-65
2023/07/24 00:05:26;;;;;;;3.83;2.10;;;;;;;;;;5016133;28;25143;-66
2023/07/24 00:07:52;;;;;;;2.63;2.28;;;;;;;;;;5014447;28;25115;-68
2023/07/24 00:10:18;;;;;;;5.97;2.70;;;;;;;;;;5018384;28;25075;-65
2023/07/24 00:12:44;;;;;;;4.47;3.33;;;;;;;;;;5010049;28;25070;-67
2023/07/24 00:15:10;;;;;;;5.22;2.70;;;;;;;;;;5006247;28;25058;-65
2023/07/24 00:17:36;;;;;;;6.78;3.60;;;;;;;;;;5006312;28;25067;-66
2023/07/24 00:20:02;;;;;;;4.82;3.17;;;;;;;;;;5007019;28;25102;-66
2023/07/24 00:22:28;;;;;;;5.35;3.22;;;;;;;;;;5010502;28;25048;-66
2023/07/24 00:24:54;;;;;;;5.38;3.20;;;;;;;;;;5011811;28;25061;-66
2023/07/24 00:27:20;;;;;;;4.57;2.83;;;;;;;;;;5015355;28;25069;-66
2023/07/24 00:29:46;;;;;;;4.90;2.63;;;;;;;;;;5026994;28;25054;-66
2023/07/24 00:32:12;;;;;;;3.72;2.83;;;;;;;;;;5015042;28;25053;-66
2023/07/24 00:34:38;;;;;;;4.60;3.00;;;;;;;;;;5013601;28;25073;-66
2023/07/24 00:37:04;;;;;;;6.10;3.17;;;;;;;;;;5009153;28;24991;-67
2023/07/24 00:39:30;;;;;;;5.18;3.33;;;;;;;;;;5014608;28;25129;-66
2023/07/24 00:41:56;;;;;;;3.13;2.83;;;;;;;;;;5009773;28;25153;-68
2023/07/24 00:44:22;;;;;;;5.10;3.40;;;;;;;;;;5001073;28;25080;-67
2023/07/24 00:46:48;;;;;;;5.25;3.60;;;;;;;;;;5016181;28;25050;-67
2023/07/24 00:49:15;;;;;;;5.57;4.13;;;;;;;;;;5001143;28;25077;-67
2023/07/24 00:51:40;;;;;;;5.32;3.70;;;;;;;;;;5013513;28;25102;-66
2023/07/24 00:54:07;;;;;;;5.82;3.72;;;;;;;;;;5014176;28;25086;-66
2023/07/24 00:56:33;;;;;;;4.57;3.42;;;;;;;;;;5008608;28;25051;-66
2023/07/24 00:59:00;;;;;;;4.45;3.25;;;;;;;;;;5015665;28;25084;-68
2023/07/24 01:01:26;;;;;;;4.00;3.10;;;;;;;;;;5011715;28;25113;-66
2023/07/24 01:03:52;;;;;;;6.28;2.85;;;;;;;;;;5010050;28;25140;-66
2023/07/24 01:06:18;;;;;;;5.28;3.22;;;;;;;;;;5013387;28;25110;-66
2023/07/24 01:08:44;;;;;;;5.45;3.40;;;;;;;;;;5017459;28;25056;-65
2023/07/24 01:11:16;;;;;;;4.25;3.10;;;;;;;;;;5013398;28;25054;-66
2023/07/24 01:13:43;;;;;;;4.53;3.13;;;;;;;;;;5006162;28;25082;-66
2023/07/24 01:16:10;;;;;;;6.15;3.30;;;;;;;;;;5018231;28;25059;-67
2023/07/24 01:18:37;;;;;;;5.38;3.85;;;;;;;;;;5007563;28;25131;-67
2023/07/24 01:21:05;;;;;;;6.13;3.78;;;;;;;;;;5018373;28;25078;-65
2023/07/24 01:23:47;;;;;;;3.35;2.88;;;;;;;;;;5011590;28;25127;-68
2023/07/24 01:26:13;;;;;;;4.13;3.15;;;;;;;;;;5021738;28;25067;-66
2023/07/24 01:28:39;;;;;;;5.78;3.13;;;;;;;;;;5006710;28;25057;-65
2023/07/24 01:31:05;;;;;;;4.13;3.13;;;;;;;;;;5008420;28;25141;-66
2023/07/24 01:33:33;;;;;;;6.95;3.40;;;;;;;;;;5015390;28;25097;-65
2023/07/24 01:36:01;;;;;;;4.45;3.33;;;;;;;;;;5010420;28;25062;-66
2023/07/24 01:38:27;;;;;;;4.43;3.40;;;;;;;;;;5016322;28;25082;-66
2023/07/24 01:40:56;;;;;;;3.78;3.35;;;;;;;;;;5007868;28;25074;-66
2023/07/24 01:43:23;;;;;;;5.57;4.15;;;;;;;;;;5001005;28;25061;-67
2023/07/24 01:45:49;;;;;;;5.97;4.00;;;;;;;;;;5009783;28;25103;-66
2023/07/24 01:48:15;;;;;;;4.85;3.67;;;;;;;;;;5000862;28;25101;-66
2023/07/24 01:50:41;;;;;;;4.93;3.13;;;;;;;;;;5009890;28;25062;-66
2023/07/24 01:53:06;;;;;;;4.35;3.60;;;;;;;;;;5013053;28;25080;-65
2023/07/24 01:55:32;;;;;;;6.65;3.72;;;;;;;;;;5004431;28;25056;-65
2023/07/24 01:57:58;;;;;;;7.00;3.10;;;;;;;;;;5019053;28;25048;-67
2023/07/24 02:00:24;;;;;;;6.13;3.60;;;;;;;;;;5010183;28;25055;-65
2023/07/24 02:02:50;;;;;;;5.43;3.45;;;;;;;;;;5009719;28;26180;-66
2023/07/24 02:05:16;;;;;;;7.15;3.33;;;;;;;;;;5024958;28;25047;-67
2023/07/24 02:07:42;;;;;;;8.40;3.92;;;;;;;;;;5017884;28;25159;-67
2023/07/24 02:10:08;;;;;;;5.72;4.10;;;;;;;;;;5017563;28;25080;-67
2023/07/24 02:12:34;;;;;;;5.55;3.67;;;;;;;;;;5009667;28;25078;-68
2023/07/24 02:15:00;;;;;;;6.32;3.25;;;;;;;;;;5016566;28;25053;-66
2023/07/24 02:17:26;;;;;;;5.03;3.58;;;;;;;;;;5010995;28;25078;-68
2023/07/24 02:19:52;;;;;;;6.20;3.88;;;;;;;;;;5011928;28;25115;-68
2023/07/24 02:22:18;;;;;;;5.57;3.40;;;;;;;;;;5009964;28;25092;-67
2023/07/24 02:24:44;;;;;;;7.40;4.03;;;;;;;;;;5004408;28;25084;-66
2023/07/24 02:27:14;;;;;;;5.47;3.70;;;;;;;;;;5010449;28;25133;-66
2023/07/24 02:29:40;;;;;;;6.25;4.13;;;;;;;;;;5007045;28;25088;-67
2023/07/24 02:32:06;;;;;;;4.90;3.20;;;;;;;;;;5011018;28;25076;-67
2023/07/24 02:34:32;;;;;;;4.75;3.15;;;;;;;;;;5013102;28;25481;-65
2023/07/24 02:36:58;;;;;;;5.80;3.60;;;;;;;;;;5014126;28;25096;-66
2023/07/24 02:39:24;;;;;;;5.43;3.67;;;;;;;;;;5012392;28;25076;-66
2023/07/24 02:41:50;;;;;;;4.93;3.75;;;;;;;;;;5000027;28;25079;-67
2023/07/24 02:44:16;;;;;;;5.50;3.72;;;;;;;;;;5015679;28;25129;-66
2023/07/24 02:46:41;;;;;;;5.05;3.53;;;;;;;;;;5016446;28;25088;-67
2023/07/24 02:49:08;;;;;;;5.13;3.75;;;;;;;;;;5010932;28;25139;-66
2023/07/24 02:51:34;;;;;;;4.38;3.10;;;;;;;;;;5007083;28;25066;-67
2023/07/24 02:54:00;;;;;;;6.05;4.35;;;;;;;;;;5009716;28;25155;-67
2023/07/24 02:56:26;;;;;;;6.00;3.60;;;;;;;;;;5015372;28;25128;-66
2023/07/24 02:58:52;;;;;;;5.88;3.67;;;;;;;;;;5017417;28;25044;-67
2023/07/24 03:01:18;;;;;;;5.00;3.42;;;;;;;;;;5014861;28;25069;-67
2023/07/24 03:03:44;;;;;;;5.25;3.90;;;;;;;;;;5012837;28;25051;-66
2023/07/24 03:06:10;;;;;;;6.35;4.07;;;;;;;;;;5002860;28;25129;-66
2023/07/24 03:08:36;;;;;;;7.60;3.92;;;;;;;;;;5008948;28;25066;-66
2023/07/24 03:11:05;;;;;;;5.55;3.90;;;;;;;;;;5010011;28;25068;-66
2023/07/24 03:13:31;;;;;;;5.90;3.63;;;;;;;;;;5012028;28;25077;-67
2023/07/24 03:15:58;;;;;;;5.70;3.53;;;;;;;;;;5009363;28;25078;-66
2023/07/24 03:18:24;;;;;;;8.25;4.20;;;;;;;;;;5017503;28;25154;-67
2023/07/24 03:20:50;;;;;;;6.78;3.92;;;;;;;;;;5007404;28;25133;-67
2023/07/24 03:23:16;;;;;;;6.80;4.38;;;;;;;;;;5009340;28;25050;-67
2023/07/24 03:25:42;;;;;;;4.38;3.53;;;;;;;;;;5011259;28;25083;-67
2023/07/24 03:28:08;;;;;;;7.75;4.60;;;;;;;;;;5012667;28;25052;-67
2023/07/24 03:30:34;;;;;;;6.80;4.10;;;;;;;;;;5012430;28;25130;-67
2023/07/24 03:33:00;;;;;;;7.57;4.22;;;;;;;;;;5003011;28;25073;-68
2023/07/24 03:35:27;;;;;;;8.00;4.93;;;;;;;;;;5018353;28;25085;-66
2023/07/24 03:37:53;;;;;;;7.43;4.50;;;;;;;;;;5013709;28;25144;-67
2023/07/24 03:40:19;;;;;;;7.53;4.60;;;;;;;;;;5012392;28;25063;-66
2023/07/24 03:42:45;;;;;;;7.60;5.15;;;;;;;;;;5008886;28;25193;-66
2023/07/24 03:45:11;;;;;;;10.85;5.38;;;;;;;;;;5009548;28;25082;-67
2023/07/24 03:47:36;;;;;;;8.90;5.05;;;;;;;;;;5015440;28;25064;-65
2023/07/24 03:50:02;;;;;;;7.55;5.45;;;;;;;;;;5016971;28;25079;-66
2023/07/24 03:52:28;;;;;;;8.23;5.63;;;;;;;;;;5018587;28;25054;-66
2023/07/24 03:54:54;;;;;;;10.55;5.90;;;;;;;;;;5014257;28;25070;-67
2023/07/24 03:57:20;;;;;;;8.43;6.22;;;;;;;;;;5004465;28;25148;-65
2023/07/24 03:59:46;;;;;;;8.65;6.18;;;;;;;;;;5014244;28;25049;-65
2023/07/24 04:02:12;;;;;;;8.88;6.43;;;;;;;;;;5014556;28;25052;-66
2023/07/24 04:04:38;;;;;;;9.93;5.85;;;;;;;;;;5006901;28;25051;-67
2023/07/24 04:07:04;;;;;;;14.23;6.70;;;;;;;;;;5014723;28;25087;-66
2023/07/24 04:09:30;;;;;;;9.35;6.70;;;;;;;;;;5010020;28;25065;-65
2023/07/24 04:11:56;;;;;;;10.63;6.63;;;;;;;;;;5014802;28;25067;-67
2023/07/24 04:14:22;;;;;;;11.13;6.93;;;;;;;;;;5006402;28;25057;-66
2023/07/24 04:16:48;;;;;;;12.20;7.05;;;;;;;;;;5007627;28;25109;-66
2023/07/24 04:19:15;;;;;;;9.15;6.40;;;;;;;;;;5015458;28;25088;-66
2023/07/24 04:21:41;;;;;;;12.88;7.47;;;;;;;;;;5012923;28;25068;-66
2023/07/24 04:24:07;;;;;;;10.88;7.10;;;;;;;;;;5011171;28;25070;-68
2023/07/24 04:26:33;;;;;;;10.25;6.80;;;;;;;;;;5017062;28;25135;-68
2023/07/24 04:28:59;;;;;;;12.55;7.30;;;;;;;;;;5017243;28;25084;-66
2023/07/24 04:31:25;;;;;;;12.13;7.78;;;;;;;;;;5015258;28;25137;-65
2023/07/24 04:33:51;;;;;;;13.57;7.80;;;;;;;;;;5009127;28;25109;-66
2023/07/24 04:36:17;;;;;;;17.85;7.60;;;;;;;;;;5017506;28;25085;-67
2023/07/24 04:38:43;;;;;;;13.48;7.97;;;;;;;;;;5018169;28;25058;-66
2023/07/24 04:41:09;;;;;;;12.43;7.82;;;;;;;;;;5012881;28;25079;-66
2023/07/24 04:43:35;;;;;;;16.63;8.90;;;;;;;;;;5015280;28;25075;-68
2023/07/24 04:46:01;;;;;;;15.98;8.75;;;;;;;;;;5015840;28;25062;-68
2023/07/24 04:48:27;;;;;;;12.98;8.80;;;;;;;;;;5007011;28;25056;-66
2023/07/24 04:50:57;;;;;;;13.27;7.82;;;;;;;;;;5017399;28;25110;-65
2023/07/24 04:53:23;;;;;;;16.92;8.70;;;;;;;;;;5005425;28;25061;-67
2023/07/24 04:55:49;;;;;;;17.15;8.65;;;;;;;;;;5002558;28;25146;-67
2023/07/24 04:58:15;;;;;;;15.18;8.48;;;;;;;;;;5006913;28;25058;-66
2023/07/24 05:00:41;;;;;;;14.75;8.10;;;;;;;;;;5013477;28;25102;-67
2023/07/24 05:03:10;;;;;;;10.20;7.95;;;;;;;;;;5008382;28;25062;-66
2023/07/24 05:05:37;;;;;;;14.30;9.05;;;;;;;;;;5002602;28;25086;-67
2023/07/24 05:08:03;;;;;;;16.35;9.20;;;;;;;;;;5013608;28;25069;-67
2023/07/24 05:10:29;;;;;;;15.05;9.20;;;;;;;;;;5011637;28;25135;-67
2023/07/24 05:12:56;;;;;;;17.10;9.55;;;;;;;;;;5004861;28;25057;-68
2023/07/24 05:15:22;;;;;;;12.70;9.00;;;;;;;;;;5014482;28;25130;-67
2023/07/24 05:17:48;;;;;;;16.10;8.73;;;;;;;;;;5005818;28;25065;-68
2023/07/24 05:20:14;;;;;;;12.27;8.98;;;;;;;;;;5013695;28;25072;-68
2023/07/24 05:22:40;;;;;;;15.57;9.18;;;;;;;;;;5010181;28;25075;-66
2023/07/24 05:25:06;;;;;;;17.92;10.13;;;;;;;;;;5007820;28;25081;-68
2023/07/24 05:27:32;;;;;;;14.88;8.95;;;;;;;;;;5008195;28;25160;-67
2023/07/24 05:29:58;;;;;;;13.98;9.65;;;;;;;;;;5008946;28;25112;-67
2023/07/24 05:32:24;;;;;;;15.07;8.60;;;;;;;;;;5005363;28;25097;-65
2023/07/24 05:34:51;;;;;;;17.88;9.02;;;;;;;;;;5001795;28;25077;-66
2023/07/24 05:37:17;;;;;;;16.20;9.48;;;;;;;;;;5007239;28;25085;-67
2023/07/24 05:39:43;;;;;;;14.43;9.73;;;;;;;;;;5006869;28;25149;-67
2023/07/24 05:42:10;;;;;;;13.98;9.77;;;;;;;;;;5005817;28;25119;-67
2023/07/24 05:44:37;;;;;;;17.45;9.60;;;;;;;;;;5008427;28;25060;-65
2023/07/24 05:47:03;;;;;;;14.30;9.73;;;;;;;;;;5006723;28;25085;-68
2023/07/24 05:49:29;;;;;;;13.43;9.27;;;;;;;;;;5001000;28;25092;-66
2023/07/24 05:51:56;;;;;;;18.02;10.25;;;;;;;;;;5006115;28;25142;-66
2023/07/24 05:54:22;;;;;;;16.15;10.73;;;;;;;;;;5001487;28;25065;-67
2023/07/24 05:56:48;;;;;;;17.38;10.18;;;;;;;;;;5006893;28;25071;-65
2023/07/24 05:59:14;;;;;;;15.88;9.98;;;;;;;;;;5002454;28;25145;-66
2023/07/24 06:01:40;;;;;;;15.73;10.32;;;;;;;;;;5010635;28;25078;-65
2023/07/24 06:04:07;;;;;;;16.42;9.55;;;;;;;;;;5003825;28;25062;-66
2023/07/24 06:06:33;;;;;;;20.42;9.63;;;;;;;;;;5003980;28;25081;-67
2023/07/24 06:08:59;;;;;;;15.68;9.10;;;;;;;;;;5023667;28;25075;-66
2023/07/24 06:11:26;;;;;;;13.57;7.90;;;;;;;;;;5009748;28;25053;-66
2023/07/24 06:13:52;;;;;;;14.70;8.77;;;;;;;;;;5013210;28;25067;-65
2023/07/24 06:16:19;;;;;;;15.60;8.57;;;;;;;;;;5006626;28;25053;-66
2023/07/24 06:18:45;;;;;;;13.07;8.95;;;;;;;;;;4996783;28;25108;-65
2023/07/24 06:21:11;;;;;;;13.65;7.72;;;;;;;;;;5004535;28;25169;-66
2023/07/24 06:23:37;;;;;;;24.30;9.63;;;;;;;;;;4998002;28;25102;-65
2023/07/24 06:26:03;;;;;;;13.05;8.32;;;;;;;;;;5000121;28;25142;-65
2023/07/24 06:28:29;;;;;;;11.90;8.00;;;;;;;;;;4998064;28;25078;-65
2023/07/24 06:30:55;;;;;;;14.63;8.32;;;;;;;;;;4998394;28;25181;-65
2023/07/24 06:33:21;;;;;;;13.55;7.47;;;;;;;;;;5000399;28;25088;-65
2023/07/24 06:35:48;;;;;;;15.68;7.95;;;;;;;;;;5007391;28;25120;-65
2023/07/24 06:38:14;;;;;;;11.95;7.30;;;;;;;;;;5007766;28;25058;-65
2023/07/24 06:40:40;;;;;;;20.58;7.72;;;;;;;;;;5009931;28;25067;-66
2023/07/24 06:43:06;;;;;;;16.10;9.05;;;;;;;;;;5012269;28;25134;-65
2023/07/24 06:45:32;;;;;;;15.30;9.43;;;;;;;;;;5004802;28;25074;-65
2023/07/24 06:47:58;;;;;;;15.43;9.13;;;;;;;;;;5006266;28;25144;-67
2023/07/24 06:50:24;;;;;;;13.38;9.23;;;;;;;;;;5011650;28;25058;-66
2023/07/24 06:52:51;;;;;;;12.48;9.07;;;;;;;;;;5014409;28;25167;-66
2023/07/24 06:55:17;;;;;;;13.95;8.07;;;;;;;;;;5009602;28;25072;-68
2023/07/24 06:57:43;;;;;;;16.20;9.18;;;;;;;;;;5018660;28;25148;-67
2023/07/24 07:00:11;;;;;;;17.42;8.65;;;;;;;;;;5015642;28;25157;-67
2023/07/24 07:02:37;;;;;;;17.45;9.82;;;;;;;;;;5006438;28;25093;-66
2023/07/24 07:05:03;;;;;;;14.82;9.05;;;;;;;;;;5012590;28;25058;-66
2023/07/24 07:07:29;;;;;;;18.45;9.38;;;;;;;;;;5006394;28;25105;-66
2023/07/24 07:09:55;;;;;;;14.80;9.40;;;;;;;;;;5010942;28;25100;-68
2023/07/24 07:12:21;;;;;;;13.95;8.40;;;;;;;;;;5004274;28;25113;-66
2023/07/24 07:14:47;;;;;;;12.85;7.97;;;;;;;;;;5006885;28;25107;-65
2023/07/24 07:17:13;;;;;;;15.57;9.23;;;;;;;;;;5016776;28;25077;-65
2023/07/24 07:19:39;;;;;;;16.02;8.70;;;;;;;;;;5010906;28;25077;-66
2023/07/24 07:22:05;;;;;;;13.32;8.73;;;;;;;;;;5006275;28;25065;-65
2023/07/24 07:24:31;;;;;;;16.00;9.07;;;;;;;;;;5005313;28;25060;-66
2023/07/24 07:26:57;;;;;;;22.15;9.35;;;;;;;;;;5002264;28;25067;-65
2023/07/24 07:29:23;;;;;;;17.17;9.93;;;;;;;;;;5006942;28;25068;-64
2023/07/24 07:31:49;;;;;;;13.20;8.95;;;;;;;;;;5011516;28;25118;-64
2023/07/24 07:34:15;;;;;;;12.40;7.53;;;;;;;;;;5012522;28;25116;-65
2023/07/24 07:36:41;;;;;;;14.45;7.97;;;;;;;;;;5013010;28;25066;-63
2023/07/24 07:39:07;;;;;;;12.93;8.07;;;;;;;;;;5008879;28;25181;-65
2023/07/24 07:41:33;;;;;;;11.25;7.70;;;;;;;;;;5009266;28;25058;-65
2023/07/24 07:43:59;;;;;;;12.55;7.60;;;;;;;;;;5002201;28;25061;-66
2023/07/24 07:46:25;;;;;;;12.63;6.63;;;;;;;;;;4999011;28;25125;-65
2023/07/24 07:48:51;;;;;;;13.43;8.13;;;;;;;;;;5011785;28;25163;-64
2023/07/24 07:51:17;;;;;;;13.50;8.63;;;;;;;;;;5006559;28;25088;-63
2023/07/24 07:53:43;;;;;;;12.90;8.73;;;;;;;;;;5010021;28;25075;-68
2023/07/24 07:56:09;;;;;;;14.43;9.18;;;;;;;;;;5005438;28;25069;-65
2023/07/24 07:58:35;;;;;;;12.63;8.68;;;;;;;;;;5010641;28;25056;-65
2023/07/24 08:01:07;;;;;;;17.17;9.18;;;;;;;;;;5003705;28;25153;-65
2023/07/24 08:03:34;;;;;;;12.02;8.25;;;;;;;;;;5003448;28;25088;-65
2023/07/24 08:06:00;;;;;;;15.57;9.80;;;;;;;;;;5007003;28;25069;-66
2023/07/24 08:08:26;;;;;;;14.02;8.93;;;;;;;;;;5001892;28;25062;-65
2023/07/24 08:10:52;;;;;;;13.93;8.98;;;;;;;;;;5014112;28;25118;-67
2023/07/24 08:13:18;;;;;;;14.65;7.38;;;;;;;;;;5004803;28;25136;-65
2023/07/24 08:15:44;;;;;;;20.35;8.43;;;;;;;;;;5007684;28;25153;-66
2023/07/24 08:18:10;;;;;;;9.93;7.88;;;;;;;;;;5013973;28;25096;-65
2023/07/24 08:20:36;;;;;;;11.75;7.32;;;;;;;;;;5019214;28;25076;-65
2023/07/24 08:23:03;;;;;;;11.23;6.43;;;;;;;;;;5014739;28;25096;-64
2023/07/24 08:25:28;;;;;;;10.10;5.35;;;;;;;;;;5010280;28;25067;-67
2023/07/24 08:27:54;;;;;;;9.65;6.32;;;;;;;;;;5016105;28;25109;-66
2023/07/24 08:30:20;;;;;;;10.80;5.65;;;;;;;;;;5006717;28;25074;-64
2023/07/24 08:32:46;;;;;;;11.20;5.88;;;;;;;;;;5009968;28;25055;-65
2023/07/24 08:35:13;;;;;;;12.00;6.68;;;;;;;;;;5010580;28;25063;-66
2023/07/24 08:37:38;;;;;;;10.98;6.85;;;;;;;;;;5011039;28;25074;-65
2023/07/24 08:40:05;;;;;;;16.40;6.93;;;;;;;;;;5011853;28;25073;-65
2023/07/24 08:42:31;;;;;;;8.73;6.53;;;;;;;;;;5007744;28;25063;-65
2023/07/24 08:44:58;;;;;;;15.13;7.10;;;;;;;;;;5016148;28;25080;-66
2023/07/24 08:47:25;;;;;;;17.02;6.78;;;;;;;;;;5016186;28;25149;-66
2023/07/24 08:49:51;;;;;;;14.20;7.07;;;;;;;;;;5014072;28;25041;-65
2023/07/24 08:52:17;;;;;;;13.10;7.03;;;;;;;;;;5010005;28;25067;-63
2023/07/24 08:54:43;;;;;;;13.68;6.28;;;;;;;;;;5022153;28;25079;-66
2023/07/24 08:57:09;;;;;;;12.27;6.47;;;;;;;;;;5004172;28;25058;-64
2023/07/24 08:59:35;;;;;;;13.23;6.60;;;;;;;;;;5006707;28;25098;-65
2023/07/24 09:02:01;;;;;;;15.57;6.75;;;;;;;;;;5004668;28;25107;-67
2023/07/24 09:04:27;;;;;;;12.50;6.63;;;;;;;;;;5011209;28;25125;-66
2023/07/24 09:06:53;;;;;;;13.00;6.85;;;;;;;;;;5003356;28;25061;-67
2023/07/24 09:09:20;;;;;;;15.05;7.63;;;;;;;;;;5012604;28;25067;-66
2023/07/24 09:11:50;;;;;;;10.40;6.60;;;;;;;;;;5007728;28;25093;-65
2023/07/24 09:14:26;;;;;;;9.50;6.43;;;;;;;;;;5008769;28;25052;-65
2023/07/24 09:17:04;;;;;;;13.35;6.30;;;;;;;;;;5001991;28;25041;-66
2023/07/24 09:19:30;;;;;;;13.45;6.18;;;;;;;;;;5000343;28;25088;-64
2023/07/24 09:21:56;;;;;;;9.20;5.95;;;;;;;;;;5009244;28;25091;-65
2023/07/24 09:24:22;;;;;;;15.00;6.70;;;;;;;;;;5002613;28;25118;-65
2023/07/24 09:26:52;;;;;;;8.25;6.15;;;;;;;;;;5006548;28;25059;-65
2023/07/24 09:29:18;;;;;;;11.25;7.40;;;;;;;;;;5004507;28;25113;-66
2023/07/24 09:31:45;;;;;;;9.30;6.30;;;;;;;;;;5009881;28;25060;-69
2023/07/24 09:34:18;;;;;;;9.57;6.20;;;;;;;;;;5000153;28;25095;-65
2023/07/24 09:36:44;;;;;;;11.35;6.70;;;;;;;;;;5004071;28;25120;-65
2023/07/24 09:39:13;;;;;;;10.07;6.75;;;;;;;;;;5005171;28;25055;-64
2023/07/24 09:41:40;;;;;;;9.65;5.63;;;;;;;;;;5001412;28;25099;-65
2023/07/24 09:44:06;;;;;;;13.73;6.72;;;;;;;;;;5009591;28;25067;-64
2023/07/24 09:46:32;;;;;;;8.75;5.95;;;;;;;;;;5003600;28;25050;-64
2023/07/24 09:48:58;;;;;;;13.88;6.45;;;;;;;;;;5012179;28;25169;-65
2023/07/24 09:51:24;;;;;;;15.82;6.57;;;;;;;;;;4995548;28;25126;-65
2023/07/24 09:53:56;;;;;;;11.18;6.07;;;;;;;;;;5011292;28;25047;-64
2023/07/24 09:56:23;;;;;;;11.68;6.38;;;;;;;;;;5005301;28;25044;-64
2023/07/24 09:58:54;;;;;;;11.73;5.53;;;;;;;;;;5002260;28;25071;-65
2023/07/24 10:01:20;;;;;;;17.85;6.43;;;;;;;;;;5001481;28;25086;-65
2023/07/24 10:03:50;;;;;;;13.48;5.45;;;;;;;;;;5011976;28;25087;-64
2023/07/24 10:06:16;;;;;;;10.70;5.65;;;;;;;;;;4998709;28;25106;-66
2023/07/24 10:08:43;;;;;;;10.85;5.35;;;;;;;;;;5012389;28;25164;-64
2023/07/24 10:11:09;;;;;;;8.40;5.60;;;;;;;;;;4995517;28;25103;-64
2023/07/24 10:13:36;;;;;;;10.05;5.93;;;;;;;;;;4993981;28;25071;-65
2023/07/24 10:16:04;;;;;;;9.48;5.82;;;;;;;;;;5017268;28;25165;-65
2023/07/24 10:18:31;;;;;;;12.38;6.03;;;;;;;;;;5015176;28;25065;-63
2023/07/24 10:21:01;;;;;;;11.73;5.80;;;;;;;;;;5003314;28;25097;-64
2023/07/24 10:23:27;;;;;;;16.38;6.28;;;;;;;;;;5006852;28;25064;-64
2023/07/24 10:25:53;;;;;;;7.53;5.15;;;;;;;;;;5017274;28;25050;-64
2023/07/24 10:28:19;;;;;;;9.40;4.68;;;;;;;;;;5006404;28;25071;-64
2023/07/24 10:30:45;;;;;;;8.90;4.70;;;;;;;;;;5005407;28;25158;-64
2023/07/24 10:33:12;;;;;;;8.38;4.88;;;;;;;;;;5012336;28;25105;-64
2023/07/24 10:35:45;;;;;;;7.05;4.82;;;;;;;;;;5007883;28;25179;-65
2023/07/24 10:38:12;;;;;;;11.82;5.72;;;;;;;;;;5015759;28;25078;-64
2023/07/24 10:40:40;;;;;;;10.75;5.40;;;;;;;;;;5015358;28;25133;-66
2023/07/24 10:43:13;;;;;;;10.18;5.13;;;;;;;;;;5021799;28;25064;-64
2023/07/24 10:45:40;;;;;;;9.85;5.38;;;;;;;;;;5013223;28;25064;-65
2023/07/24 10:48:06;;;;;;;5.55;4.32;;;;;;;;;;5017727;28;25068;-65
2023/07/24 10:50:42;;;;;;;7.22;4.68;;;;;;;;;;5015815;28;25161;-66
2023/07/24 10:53:15;;;;;;;6.22;4.03;;;;;;;;;;5020813;28;25120;-63
2023/07/24 10:55:41;;;;;;;9.75;4.65;;;;;;;;;;5006310;28;25076;-64
2023/07/24 10:58:08;;;;;;;6.07;4.40;;;;;;;;;;4998851;28;25065;-63
2023/07/24 11:00:34;;;;;;;12.75;4.85;;;;;;;;;;5011591;28;25075;-64
2023/07/24 11:03:00;;;;;;;6.07;4.85;;;;;;;;;;5008816;28;25045;-64
2023/07/24 11:05:26;;;;;;;10.50;5.43;;;;;;;;;;5003026;28;25139;-66
2023/07/24 11:07:52;;;;;;;10.98;6.22;;;;;;;;;;5021764;28;25070;-64
2023/07/24 11:10:19;;;;;;;11.02;6.68;;;;;;;;;;5026062;28;25069;-65
2023/07/24 11:12:45;;;;;;;9.35;6.93;;;;;;;;;;5005062;28;25132;-65
2023/07/24 11:15:12;;;;;;;11.32;6.18;;;;;;;;;;5006407;28;25067;-66
2023/07/24 11:17:40;;;;;;;11.27;6.15;;;;;;;;;;5012628;28;25062;-63
2023/07/24 11:20:16;;;;;;;12.75;7.47;;;;;;;;;;4999459;28;25142;-62
2023/07/24 11:22:43;;;;;;;11.18;6.55;;;;;;;;;;5008001;28;25047;-64
2023/07/24 11:25:10;;;;;;;9.98;7.28;;;;;;;;;;4999386;28;25096;-64
2023/07/24 11:27:43;;;;;;;10.15;6.90;;;;;;;;;;5016944;28;25083;-64
2023/07/24 11:30:10;;;;;;;11.00;6.47;;;;;;;;;;5004692;28;25069;-64
2023/07/24 11:32:38;;;;;;;8.23;6.30;;;;;;;;;;5011533;28;25092;-64
2023/07/24 11:35:05;;;;;;;10.75;6.72;;;;;;;;;;5012058;28;25072;-63
2023/07/24 11:37:31;;;;;;;11.27;6.20;;;;;;;;;;5002480;28;25132;-63
2023/07/24 11:40:04;;;;;;;9.43;5.75;;;;;;;;;;5007265;28;25141;-64
2023/07/24 11:42:30;;;;;;;10.30;6.32;;;;;;;;;;5004239;28;25061;-62
2023/07/24 11:44:56;;;;;;;11.77;5.65;;;;;;;;;;5013559;28;25060;-64
2023/07/24 11:47:23;;;;;;;11.73;5.47;;;;;;;;;;5010761;28;25070;-64
2023/07/24 11:50:01;;;;;;;13.32;7.85;;;;;;;;;;5008000;28;25074;-63
2023/07/24 11:52:38;;;;;;;15.20;9.45;;;;;;;;;;5002371;28;25056;-65
2023/07/24 11:55:04;;;;;;;15.45;9.82;;;;;;;;;;5013751;28;25149;-67
2023/07/24 11:57:30;;;;;;;15.40;9.57;;;;;;;;;;5005449;28;25162;-66
2023/07/24 11:59:57;;;;;;;15.95;9.68;;;;;;;;;;5014752;28;25062;-66
2023/07/24 12:02:27;;;;;;;13.32;9.10;;;;;;;;;;5011293;28;25068;-66
2023/07/24 12:04:57;;;;;;;11.80;8.90;;;;;;;;;;4996240;28;25079;-65
2023/07/24 12:07:33;;;;;;;13.90;8.80;;;;;;;;;;5006404;28;25136;-67
2023/07/24 12:10:00;;;;;;;12.80;9.60;;;;;;;;;;5003960;28;25059;-65
2023/07/24 12:12:26;;;;;;;12.65;8.48;;;;;;;;;;5009791;28;25067;-65
2023/07/24 12:14:52;;;;;;;15.93;8.18;;;;;;;;;;5012229;28;25069;-65
2023/07/24 12:17:19;;;;;;;9.63;5.93;;;;;;;;;;5010940;28;25052;-65
2023/07/24 12:19:45;;;;;;;9.40;5.45;;;;;;;;;;5015430;28;25091;-64
2023/07/24 12:22:11;;;;;;;11.75;5.63;;;;;;;;;;5019459;28;25050;-65
2023/07/24 12:24:37;;;;;;;14.07;6.22;;;;;;;;;;5006175;28;25060;-64
2023/07/24 12:27:03;;;;;;;10.32;4.95;;;;;;;;;;5004526;28;25102;-62
2023/07/24 12:29:29;;;;;;;10.05;5.35;;;;;;;;;;5011088;28;25110;-62
2023/07/24 12:31:55;;;;;;;8.15;5.35;;;;;;;;;;5009626;28;25109;-65
2023/07/24 12:34:21;;;;;;;11.93;5.50;;;;;;;;;;5001342;28;25064;-64
2023/07/24 12:36:47;;;;;;;9.95;5.82;;;;;;;;;;5012289;28;25073;-63
2023/07/24 12:39:13;;;;;;;10.45;5.00;;;;;;;;;;5021123;28;25103;-63
2023/07/24 12:41:39;;;;;;;12.40;6.20;;;;;;;;;;5005293;28;25067;-64
2023/07/24 12:44:05;;;;;;;9.30;6.00;;;;;;;;;;5000197;28;25061;-65
2023/07/24 12:46:31;;;;;;;11.52;5.88;;;;;;;;;;5010343;28;25066;-66
2023/07/24 12:48:57;;;;;;;9.27;4.78;;;;;;;;;;5005705;28;25129;-63
2023/07/24 12:51:23;;;;;;;10.73;5.10;;;;;;;;;;5016096;28;25084;-64
2023/07/24 12:53:49;;;;;;;11.20;5.55;;;;;;;;;;5023339;28;25053;-64
2023/07/24 12:56:15;;;;;;;7.82;4.72;;;;;;;;;;5006317;28;25324;-65
2023/07/24 12:58:41;;;;;;;9.57;4.88;;;;;;;;;;5001454;28;25111;-65
2023/07/24 13:01:07;;;;;;;8.27;5.30;;;;;;;;;;5007146;28;25100;-64
2023/07/24 13:03:33;;;;;;;7.18;5.47;;;;;;;;;;5001124;28;25088;-64
2023/07/24 13:06:00;;;;;;;6.45;4.78;;;;;;;;;;4997948;28;25071;-65
2023/07/24 13:08:26;;;;;;;6.72;5.57;;;;;;;;;;5011837;28;25115;-66
2023/07/24 13:10:52;;;;;;;8.90;5.22;;;;;;;;;;5002018;28;25108;-62
2023/07/24 13:13:18;;;;;;;8.70;5.32;;;;;;;;;;5006951;28;25102;-64
2023/07/24 13:15:44;;;;;;;9.10;5.60;;;;;;;;;;5015387;28;25065;-64
2023/07/24 13:18:13;;;;;;;10.05;5.70;;;;;;;;;;5005998;28;25070;-64
2023/07/24 13:20:39;;;;;;;8.82;5.63;;;;;;;;;;5010752;28;25051;-64
2023/07/24 13:23:05;;;;;;;7.90;5.80;;;;;;;;;;5007225;28;25136;-65
2023/07/24 13:25:31;;;;;;;9.63;5.20;;;;;;;;;;5014028;28;25129;-65
2023/07/24 13:27:57;;;;;;;7.18;5.28;;;;;;;;;;5000754;28;25055;-64
2023/07/24 13:30:23;;;;;;;5.82;4.28;;;;;;;;;;5002748;28;25276;-64
2023/07/24 13:32:49;;;;;;;7.60;4.57;;;;;;;;;;4994844;28;25135;-65
2023/07/24 13:35:15;;;;;;;7.30;4.60;;;;;;;;;;5004940;28;25065;-63
2023/07/24 13:37:41;;;;;;;7.18;4.93;;;;;;;;;;5014414;28;25064;-62
2023/07/24 13:40:07;;;;;;;7.35;4.88;;;;;;;;;;5008836;28;25138;-63
2023/07/24 13:42:33;;;;;;;8.02;4.22;;;;;;;;;;4992455;28;25082;-63
2023/07/24 13:44:59;;;;;;;8.15;4.72;;;;;;;;;;5011120;28;25097;-63
2023/07/24 13:47:25;;;;;;;9.77;4.25;;;;;;;;;;5006849;28;25113;-63
2023/07/24 13:49:51;;;;;;;7.25;3.22;;;;;;;;;;5005204;28;25149;-64
2023/07/24 13:52:17;;;;;;;4.65;2.78;;;;;;;;;;5012816;28;25056;-63
2023/07/24 13:54:43;;;;;;;3.95;2.40;;;;;;;;;;5004296;28;25081;-64
2023/07/24 13:57:09;;;;;;;7.53;3.25;;;;;;;;;;5007869;28;25094;-64
2023/07/24 13:59:37;;;;;;;5.03;2.90;;;;;;;;;;5003705;28;25163;-62
2023/07/24 14:02:03;;;;;;;5.15;2.78;;;;;;;;;;5006375;28;25118;-63
2023/07/24 14:04:29;;;;;;;3.33;2.15;;;;;;;;;;5002497;28;25148;-63
2023/07/24 14:06:55;;;;;;;4.00;2.50;;;;;;;;;;5009843;28;25196;-62
2023/07/24 14:09:21;;;;;;;8.38;2.33;;;;;;;;;;5017724;28;25128;-64
2023/07/24 14:11:47;;;;;;;4.13;2.25;;;;;;;;;;5000904;28;25105;-61
2023/07/24 14:14:13;;;;;;;5.28;2.25;;;;;;;;;;5016561;28;25095;-63
2023/07/24 14:16:39;;;;;;;7.03;2.47;;;;;;;;;;5002118;28;25147;-62
2023/07/24 14:19:05;;;;;;;4.35;2.03;;;;;;;;;;5015605;28;25098;-62
2023/07/24 14:21:31;;;;;;;3.67;2.00;;;;;;;;;;5009472;28;25078;-63
2023/07/24 14:23:57;;;;;;;6.60;2.25;;;;;;;;;;5010598;28;25085;-63
2023/07/24 14:26:23;;;;;;;4.60;2.55;;;;;;;;;;5003461;28;25072;-65
2023/07/24 14:28:49;;;;;;;6.72;2.42;;;;;;;;;;5010734;28;25046;-63
2023/07/24 14:31:15;;;;;;;7.97;2.47;;;;;;;;;;5003029;28;25066;-63